sensor_id;sensor_type;location;lat;lon;timestamp;pressure;altitude;pressure_sealevel;temperature;humidity
11936;BME280;6027;48.576;9.180;2023-03-16T00:01:21;97191.13;;;1.16;100.00
11936;BME280;6027;48.576;9.180;2023-03-16T00:03:47;97195.00;;;0.88;100.00
11936;BME280;6027;48.576;9.180;2023-03-16T00:06:15;97194.84;;;0.79;100.00
11936;BME280;6027;48.576;9.180;2023-03-16T00:08:41;97194.19;;;0.88;100.00
11936;BME280;6027;48.576;9.180;2023-03-16T00:11:07;97194.28;;;0.86;100.00
11936;BME280;6027;48.576;9.180;2023-03-16T00:13:33;97187.50;;;0.73;100.00
11936;BME280;6027;48.576;9.180;2023-03-16T00:16:00;97193.16;;;0.66;100.00
11936;BME280;6027;48.576;9.180;2023-03-16T00:18:28;97194.09;;;0.65;100.00
11936;BME280;6027;48.576;9.180;2023-03-16T00:20:59;97196.81;;;0.64;100.00
11936;BME280;6027;48.576;9.180;2023-03-16T00:23:26;97196.25;;;0.72;100.00
11936;BME280;6027;48.576;9.180;2023-03-16T00:25:54;97187.34;;;0.63;100.00
11936;BME280;6027;48.576;9.180;2023-03-16T00:28:20;97189.81;;;0.53;100.00
11936;BME280;6027;48.576;9.180;2023-03-16T00:30:46;97192.88;;;0.58;100.00
11936;BME280;6027;48.576;9.180;2023-03-16T00:33:12;97181.13;;;0.77;100.00
11936;BME280;6027;48.576;9.180;2023-03-16T00:35:37;97188.56;;;0.81;100.00
11936;BME280;6027;48.576;9.180;2023-03-16T00:38:03;97199.75;;;0.59;100.00
11936;BME280;6027;48.576;9.180;2023-03-16T00:40:29;97198.78;;;0.49;100.00
11936;BME280;6027;48.576;9.180;2023-03-16T00:42:55;97207.13;;;0.65;100.00
11936;BME280;6027;48.576;9.180;2023-03-16T00:45:21;97202.94;;;0.52;100.00
11936;BME280;6027;48.576;9.180;2023-03-16T00:47:48;97211.69;;;0.51;100.00
11936;BME280;6027;48.576;9.180;2023-03-16T00:50:13;97212.13;;;0.68;100.00
11936;BME280;6027;48.576;9.180;2023-03-16T00:52:40;97213.72;;;0.58;100.00
11936;BME280;6027;48.576;9.180;2023-03-16T00:55:07;97217.72;;;0.51;100.00
11936;BME280;6027;48.576;9.180;2023-03-16T00:57:33;97212.72;;;0.37;100.00
11936;BME280;6027;48.576;9.180;2023-03-16T00:59:58;97212.19;;;0.32;100.00
11936;BME280;6027;48.576;9.180;2023-03-16T01:02:24;97209.41;;;0.46;100.00
11936;BME280;6027;48.576;9.180;2023-03-16T01:04:50;97209.31;;;0.48;100.00
11936;BME280;6027;48.576;9.180;2023-03-16T01:07:17;97205.53;;;0.52;100.00
11936;BME280;6027;48.576;9.180;2023-03-16T01:09:42;97197.00;;;0.50;100.00
11936;BME280;6027;48.576;9.180;2023-03-16T01:12:13;97211.59;;;0.52;100.00
11936;BME280;6027;48.576;9.180;2023-03-16T01:14:41;97209.19;;;0.49;100.00
11936;BME280;6027;48.576;9.180;2023-03-16T01:17:08;97209.50;;;0.33;100.00
11936;BME280;6027;48.576;9.180;2023-03-16T01:19:35;97206.47;;;0.27;100.00
11936;BME280;6027;48.576;9.180;2023-03-16T01:22:01;97195.13;;;0.28;100.00
11936;BME280;6027;48.576;9.180;2023-03-16T01:24:27;97195.41;;;0.36;100.00
11936;BME280;6027;48.576;9.180;2023-03-16T01:26:53;97192.84;;;0.47;100.00
11936;BME280;6027;48.576;9.180;2023-03-16T01:29:18;97199.53;;;0.62;100.00
11936;BME280;6027;48.576;9.180;2023-03-16T01:31:44;97192.78;;;0.60;100.00
11936;BME280;6027;48.576;9.180;2023-03-16T01:34:09;97205.72;;;0.38;100.00
11936;BME280;6027;48.576;9.180;2023-03-16T01:36:41;97195.22;;;0.50;100.00
11936;BME280;6027;48.576;9.180;2023-03-16T01:39:11;97194.00;;;0.19;100.00
11936;BME280;6027;48.576;9.180;2023-03-16T01:41:38;97191.38;;;0.32;100.00
11936;BME280;6027;48.576;9.180;2023-03-16T01:44:04;97192.56;;;0.39;100.00
11936;BME280;6027;48.576;9.180;2023-03-16T01:46:29;97190.13;;;0.25;100.00
11936;BME280;6027;48.576;9.180;2023-03-16T01:51:51;97184.22;;;0.23;100.00
11936;BME280;6027;48.576;9.180;2023-03-16T01:57:09;97184.06;;;0.37;100.00
11936;BME280;6027;48.576;9.180;2023-03-16T02:00:04;97182.03;;;0.41;100.00
11936;BME280;6027;48.576;9.180;2023-03-16T02:02:34;97183.44;;;0.33;100.00
11936;BME280;6027;48.576;9.180;2023-03-16T02:05:07;97175.75;;;0.32;100.00
11936;BME280;6027;48.576;9.180;2023-03-16T02:07:45;97173.19;;;0.19;100.00
11936;BME280;6027;48.576;9.180;2023-03-16T02:10:12;97170.84;;;0.04;100.00
11936;BME280;6027;48.576;9.180;2023-03-16T02:12:38;97170.47;;;-0.03;100.00
11936;BME280;6027;48.576;9.180;2023-03-16T02:15:05;97166.38;;;0.06;100.00
11936;BME280;6027;48.576;9.180;2023-03-16T02:17:33;97161.47;;;0.14;100.00
11936;BME280;6027;48.576;9.180;2023-03-16T02:20:18;97161.25;;;0.17;100.00
11936;BME280;6027;48.576;9.180;2023-03-16T02:22:50;97153.69;;;0.25;100.00
11936;BME280;6027;48.576;9.180;2023-03-16T02:25:22;97153.78;;;0.23;100.00
11936;BME280;6027;48.576;9.180;2023-03-16T02:27:59;97151.16;;;0.36;100.00
11936;BME280;6027;48.576;9.180;2023-03-16T02:30:28;97137.53;;;0.09;100.00
11936;BME280;6027;48.576;9.180;2023-03-16T02:32:55;97138.84;;;-0.10;100.00
11936;BME280;6027;48.576;9.180;2023-03-16T02:35:21;97132.50;;;-0.18;100.00
11936;BME280;6027;48.576;9.180;2023-03-16T02:37:47;97128.31;;;-0.08;100.00
11936;BME280;6027;48.576;9.180;2023-03-16T02:45:25;97138.19;;;-0.01;100.00
11936;BME280;6027;48.576;9.180;2023-03-16T02:47:52;97154.63;;;-0.24;100.00
11936;BME280;6027;48.576;9.180;2023-03-16T02:50:19;97138.56;;;-0.18;100.00
11936;BME280;6027;48.576;9.180;2023-03-16T02:52:45;97145.41;;;-0.17;100.00
11936;BME280;6027;48.576;9.180;2023-03-16T02:55:12;97142.72;;;-0.15;100.00
11936;BME280;6027;48.576;9.180;2023-03-16T02:57:38;97144.44;;;-0.03;100.00
11936;BME280;6027;48.576;9.180;2023-03-16T03:00:04;97146.91;;;-0.25;100.00
11936;BME280;6027;48.576;9.180;2023-03-16T03:02:41;97147.97;;;-0.28;100.00
11936;BME280;6027;48.576;9.180;2023-03-16T03:05:06;97141.78;;;-0.14;100.00
11936;BME280;6027;48.576;9.180;2023-03-16T03:07:32;97145.50;;;-0.06;100.00
11936;BME280;6027;48.576;9.180;2023-03-16T03:09:57;97139.47;;;-0.06;100.00
11936;BME280;6027;48.576;9.180;2023-03-16T03:12:23;97133.47;;;0.05;100.00
11936;BME280;6027;48.576;9.180;2023-03-16T03:14:48;97133.25;;;0.08;100.00
11936;BME280;6027;48.576;9.180;2023-03-16T03:17:14;97127.94;;;0.09;100.00
11936;BME280;6027;48.576;9.180;2023-03-16T03:19:39;97113.25;;;0.08;100.00
11936;BME280;6027;48.576;9.180;2023-03-16T03:22:05;97124.06;;;0.15;100.00
11936;BME280;6027;48.576;9.180;2023-03-16T03:24:32;97128.69;;;0.22;100.00
11936;BME280;6027;48.576;9.180;2023-03-16T03:26:58;97117.38;;;-0.01;100.00
11936;BME280;6027;48.576;9.180;2023-03-16T03:29:31;97123.78;;;0.07;100.00
11936;BME280;6027;48.576;9.180;2023-03-16T03:32:02;97122.91;;;-0.05;100.00
11936;BME280;6027;48.576;9.180;2023-03-16T03:34:29;97118.06;;;0.02;100.00
11936;BME280;6027;48.576;9.180;2023-03-16T03:36:56;97119.50;;;0.06;100.00
11936;BME280;6027;48.576;9.180;2023-03-16T03:39:22;97125.94;;;0.13;100.00
11936;BME280;6027;48.576;9.180;2023-03-16T03:41:48;97122.06;;;0.18;100.00
11936;BME280;6027;48.576;9.180;2023-03-16T03:44:13;97108.06;;;0.08;100.00
11936;BME280;6027;48.576;9.180;2023-03-16T03:46:38;97108.56;;;0.13;100.00
11936;BME280;6027;48.576;9.180;2023-03-16T03:49:04;97108.69;;;0.23;100.00
11936;BME280;6027;48.576;9.180;2023-03-16T03:51:30;97104.28;;;-0.12;100.00
11936;BME280;6027;48.576;9.180;2023-03-16T03:53:57;97096.44;;;-0.23;100.00
11936;BME280;6027;48.576;9.180;2023-03-16T03:56:23;97098.66;;;-0.29;100.00
11936;BME280;6027;48.576;9.180;2023-03-16T03:58:48;97105.72;;;-0.31;100.00
11936;BME280;6027;48.576;9.180;2023-03-16T04:01:14;97102.81;;;-0.27;100.00
11936;BME280;6027;48.576;9.180;2023-03-16T04:03:40;97106.16;;;-0.14;100.00
11936;BME280;6027;48.576;9.180;2023-03-16T04:06:05;97108.88;;;-0.15;100.00
11936;BME280;6027;48.576;9.180;2023-03-16T04:08:34;97106.72;;;-0.45;100.00
11936;BME280;6027;48.576;9.180;2023-03-16T04:10:59;97104.50;;;-0.39;100.00
11936;BME280;6027;48.576;9.180;2023-03-16T04:13:25;97102.28;;;-0.32;100.00
11936;BME280;6027;48.576;9.180;2023-03-16T04:15:58;97107.31;;;-0.18;100.00
11936;BME280;6027;48.576;9.180;2023-03-16T04:18:24;97094.06;;;-0.26;100.00
11936;BME280;6027;48.576;9.180;2023-03-16T04:20:50;97100.59;;;-0.20;100.00
11936;BME280;6027;48.576;9.180;2023-03-16T04:23:18;97101.91;;;-0.15;100.00
11936;BME280;6027;48.576;9.180;2023-03-16T04:25:44;97095.44;;;-0.09;100.00
11936;BME280;6027;48.576;9.180;2023-03-16T04:28:10;97096.28;;;-0.09;100.00
11936;BME280;6027;48.576;9.180;2023-03-16T04:30:36;97093.66;;;-0.09;100.00
11936;BME280;6027;48.576;9.180;2023-03-16T04:33:01;97085.63;;;-0.06;100.00
11936;BME280;6027;48.576;9.180;2023-03-16T04:35:27;97080.94;;;-0.01;100.00
11936;BME280;6027;48.576;9.180;2023-03-16T04:37:52;97082.03;;;-0.16;100.00
11936;BME280;6027;48.576;9.180;2023-03-16T04:40:18;97082.19;;;-0.30;100.00
11936;BME280;6027;48.576;9.180;2023-03-16T04:42:45;97071.25;;;-0.22;100.00
11936;BME280;6027;48.576;9.180;2023-03-16T04:45:12;97089.13;;;-0.18;100.00
11936;BME280;6027;48.576;9.180;2023-03-16T04:47:38;97085.34;;;-0.14;100.00
11936;BME280;6027;48.576;9.180;2023-03-16T04:50:04;97079.00;;;-0.10;100.00
11936;BME280;6027;48.576;9.180;2023-03-16T04:52:30;97087.22;;;-0.16;100.00
11936;BME280;6027;48.576;9.180;2023-03-16T04:54:56;97073.50;;;-0.18;100.00
11936;BME280;6027;48.576;9.180;2023-03-16T04:57:22;97076.09;;;-0.18;100.00
11936;BME280;6027;48.576;9.180;2023-03-16T04:59:48;97073.06;;;-0.12;100.00
11936;BME280;6027;48.576;9.180;2023-03-16T05:02:13;97080.31;;;-0.28;100.00
11936;BME280;6027;48.576;9.180;2023-03-16T05:04:39;97074.19;;;-0.27;100.00
11936;BME280;6027;48.576;9.180;2023-03-16T05:07:04;97077.31;;;-0.35;100.00
11936;BME280;6027;48.576;9.180;2023-03-16T05:09:30;97076.69;;;-0.38;100.00
11936;BME280;6027;48.576;9.180;2023-03-16T05:11:55;97080.97;;;-0.37;100.00
11936;BME280;6027;48.576;9.180;2023-03-16T05:14:21;97072.63;;;-0.29;100.00
11936;BME280;6027;48.576;9.180;2023-03-16T05:16:46;97077.81;;;-0.29;100.00
11936;BME280;6027;48.576;9.180;2023-03-16T05:19:11;97073.34;;;-0.27;100.00
11936;BME280;6027;48.576;9.180;2023-03-16T05:21:37;97073.34;;;-0.27;100.00
11936;BME280;6027;48.576;9.180;2023-03-16T05:24:04;97074.88;;;-0.49;100.00
11936;BME280;6027;48.576;9.180;2023-03-16T05:26:29;97074.53;;;-0.68;100.00
11936;BME280;6027;48.576;9.180;2023-03-16T05:28:55;97075.25;;;-0.66;100.00
11936;BME280;6027;48.576;9.180;2023-03-16T05:31:22;97081.38;;;-0.67;100.00
11936;BME280;6027;48.576;9.180;2023-03-16T05:33:51;97071.03;;;-0.56;100.00
11936;BME280;6027;48.576;9.180;2023-03-16T05:36:16;97076.97;;;-0.54;100.00
11936;BME280;6027;48.576;9.180;2023-03-16T05:38:42;97073.53;;;-0.54;100.00
11936;BME280;6027;48.576;9.180;2023-03-16T05:43:35;97076.97;;;-0.54;100.00
11936;BME280;6027;48.576;9.180;2023-03-16T05:46:00;97065.94;;;-0.57;100.00
11936;BME280;6027;48.576;9.180;2023-03-16T05:48:26;97072.03;;;-0.70;100.00
11936;BME280;6027;48.576;9.180;2023-03-16T05:50:52;97071.81;;;-0.66;100.00
11936;BME280;6027;48.576;9.180;2023-03-16T05:53:18;97077.63;;;-0.63;100.00
11936;BME280;6027;48.576;9.180;2023-03-16T05:55:50;97071.16;;;-0.57;100.00
11936;BME280;6027;48.576;9.180;2023-03-16T05:58:16;97069.16;;;-0.54;100.00
11936;BME280;6027;48.576;9.180;2023-03-16T06:00:42;97065.84;;;-0.56;100.00
11936;BME280;6027;48.576;9.180;2023-03-16T06:03:08;97061.00;;;-0.60;100.00
11936;BME280;6027;48.576;9.180;2023-03-16T06:05:33;97062.41;;;-0.56;100.00
11936;BME280;6027;48.576;9.180;2023-03-16T06:07:59;97072.88;;;-0.69;100.00
11936;BME280;6027;48.576;9.180;2023-03-16T06:10:24;97059.97;;;-0.71;100.00
11936;BME280;6027;48.576;9.180;2023-03-16T06:12:50;97063.09;;;-0.65;100.00
11936;BME280;6027;48.576;9.180;2023-03-16T06:15:16;97062.03;;;-0.63;100.00
11936;BME280;6027;48.576;9.180;2023-03-16T06:17:41;97066.41;;;-0.63;100.00
11936;BME280;6027;48.576;9.180;2023-03-16T06:20:08;97072.75;;;-0.67;100.00
11936;BME280;6027;48.576;9.180;2023-03-16T06:22:40;97067.28;;;-0.52;100.00
11936;BME280;6027;48.576;9.180;2023-03-16T06:25:07;97073.31;;;-0.51;100.00
11936;BME280;6027;48.576;9.180;2023-03-16T06:27:34;97066.53;;;-0.41;100.00
11936;BME280;6027;48.576;9.180;2023-03-16T06:29:59;97074.25;;;-0.40;100.00
11936;BME280;6027;48.576;9.180;2023-03-16T06:32:25;97073.41;;;-0.40;100.00
11936;BME280;6027;48.576;9.180;2023-03-16T06:34:51;97075.34;;;-0.67;100.00
11936;BME280;6027;48.576;9.180;2023-03-16T06:37:17;97063.88;;;-0.52;100.00
11936;BME280;6027;48.576;9.180;2023-03-16T06:39:42;97077.59;;;-0.50;100.00
11936;BME280;6027;48.576;9.180;2023-03-16T06:42:09;97073.66;;;-0.56;100.00
11936;BME280;6027;48.576;9.180;2023-03-16T06:44:34;97064.88;;;-0.42;100.00
11936;BME280;6027;48.576;9.180;2023-03-16T06:47:00;97077.06;;;-0.43;100.00
11936;BME280;6027;48.576;9.180;2023-03-16T06:49:25;97071.63;;;-0.40;100.00
11936;BME280;6027;48.576;9.180;2023-03-16T06:51:51;97050.84;;;-0.40;100.00
11936;BME280;6027;48.576;9.180;2023-03-16T06:54:16;97080.63;;;-0.20;100.00
11936;BME280;6027;48.576;9.180;2023-03-16T06:56:41;97081.25;;;-0.29;100.00
11936;BME280;6027;48.576;9.180;2023-03-16T06:59:07;97078.69;;;-0.18;100.00
11936;BME280;6027;48.576;9.180;2023-03-16T07:01:32;97072.84;;;-0.09;100.00
11936;BME280;6027;48.576;9.180;2023-03-16T07:03:58;97075.78;;;-0.13;100.00
11936;BME280;6027;48.576;9.180;2023-03-16T07:06:23;97083.47;;;-0.12;100.00
11936;BME280;6027;48.576;9.180;2023-03-16T07:08:49;97073.00;;;0.01;100.00
11936;BME280;6027;48.576;9.180;2023-03-16T07:11:14;97084.84;;;0.05;100.00
11936;BME280;6027;48.576;9.180;2023-03-16T07:13:40;97080.47;;;0.06;100.00
11936;BME280;6027;48.576;9.180;2023-03-16T07:16:06;97091.88;;;0.16;100.00
11936;BME280;6027;48.576;9.180;2023-03-16T07:18:33;97090.84;;;0.18;100.00
11936;BME280;6027;48.576;9.180;2023-03-16T07:20:58;97091.69;;;0.30;100.00
11936;BME280;6027;48.576;9.180;2023-03-16T07:23:24;97091.13;;;0.38;100.00
11936;BME280;6027;48.576;9.180;2023-03-16T07:25:51;97098.97;;;0.49;100.00
11936;BME280;6027;48.576;9.180;2023-03-16T07:28:17;97092.09;;;0.48;100.00
11936;BME280;6027;48.576;9.180;2023-03-16T07:30:44;97093.19;;;0.56;100.00
11936;BME280;6027;48.576;9.180;2023-03-16T07:33:10;97096.88;;;0.65;100.00
11936;BME280;6027;48.576;9.180;2023-03-16T07:35:36;97098.63;;;0.64;100.00
11936;BME280;6027;48.576;9.180;2023-03-16T07:38:02;97100.56;;;0.74;100.00
11936;BME280;6027;48.576;9.180;2023-03-16T07:40:28;97093.81;;;0.82;100.00
11936;BME280;6027;48.576;9.180;2023-03-16T07:42:53;97090.88;;;0.87;100.00
11936;BME280;6027;48.576;9.180;2023-03-16T07:45:19;97093.34;;;0.99;100.00
11936;BME280;6027;48.576;9.180;2023-03-16T07:47:45;97097.41;;;1.15;100.00
11936;BME280;6027;48.576;9.180;2023-03-16T07:50:11;97096.56;;;1.14;100.00
11936;BME280;6027;48.576;9.180;2023-03-16T07:52:37;97079.72;;;1.18;100.00
11936;BME280;6027;48.576;9.180;2023-03-16T07:55:04;97095.25;;;1.42;100.00
11936;BME280;6027;48.576;9.180;2023-03-16T07:57:30;97094.53;;;1.51;100.00
11936;BME280;6027;48.576;9.180;2023-03-16T07:59:55;97089.84;;;1.77;100.00
11936;BME280;6027;48.576;9.180;2023-03-16T08:02:21;97085.38;;;2.00;100.00
11936;BME280;6027;48.576;9.180;2023-03-16T08:04:46;97093.78;;;2.35;100.00
11936;BME280;6027;48.576;9.180;2023-03-16T08:07:13;97085.66;;;2.50;100.00
11936;BME280;6027;48.576;9.180;2023-03-16T08:09:39;97092.59;;;2.60;100.00
11936;BME280;6027;48.576;9.180;2023-03-16T08:12:06;97086.16;;;2.85;100.00
11936;BME280;6027;48.576;9.180;2023-03-16T08:14:32;97087.16;;;2.94;100.00
11936;BME280;6027;48.576;9.180;2023-03-16T08:17:00;97087.72;;;2.97;100.00
11936;BME280;6027;48.576;9.180;2023-03-16T08:19:26;97080.91;;;3.06;100.00
11936;BME280;6027;48.576;9.180;2023-03-16T08:21:52;97087.50;;;3.40;100.00
11936;BME280;6027;48.576;9.180;2023-03-16T08:24:17;97091.66;;;3.53;100.00
11936;BME280;6027;48.576;9.180;2023-03-16T08:26:43;97086.03;;;3.57;100.00
11936;BME280;6027;48.576;9.180;2023-03-16T08:29:08;97082.47;;;3.68;100.00
11936;BME280;6027;48.576;9.180;2023-03-16T08:31:34;97089.78;;;3.74;100.00
11936;BME280;6027;48.576;9.180;2023-03-16T08:34:00;97084.28;;;3.87;100.00
11936;BME280;6027;48.576;9.180;2023-03-16T08:36:26;97074.38;;;3.90;100.00
11936;BME280;6027;48.576;9.180;2023-03-16T08:38:53;97084.75;;;4.11;100.00
11936;BME280;6027;48.576;9.180;2023-03-16T08:41:20;97073.59;;;4.38;100.00
11936;BME280;6027;48.576;9.180;2023-03-16T08:43:46;97076.06;;;4.49;100.00
11936;BME280;6027;48.576;9.180;2023-03-16T08:46:12;97068.56;;;4.64;100.00
11936;BME280;6027;48.576;9.180;2023-03-16T08:48:38;97074.94;;;4.51;100.00
11936;BME280;6027;48.576;9.180;2023-03-16T08:51:06;97062.94;;;4.49;100.00
11936;BME280;6027;48.576;9.180;2023-03-16T08:53:32;97073.72;;;4.56;100.00
11936;BME280;6027;48.576;9.180;2023-03-16T08:56:15;97062.66;;;4.62;100.00
11936;BME280;6027;48.576;9.180;2023-03-16T08:58:41;97059.13;;;5.00;100.00
11936;BME280;6027;48.576;9.180;2023-03-16T09:01:13;97066.94;;;5.19;100.00
11936;BME280;6027;48.576;9.180;2023-03-16T09:03:40;97053.25;;;5.43;97.80
11936;BME280;6027;48.576;9.180;2023-03-16T09:06:10;97051.19;;;5.46;97.83
11936;BME280;6027;48.576;9.180;2023-03-16T09:08:38;97049.34;;;5.57;100.00
11936;BME280;6027;48.576;9.180;2023-03-16T09:11:06;97054.09;;;5.71;100.00
11936;BME280;6027;48.576;9.180;2023-03-16T09:13:33;97055.81;;;5.89;96.33
11936;BME280;6027;48.576;9.180;2023-03-16T09:16:00;97065.25;;;6.00;95.13
11936;BME280;6027;48.576;9.180;2023-03-16T09:18:26;97056.88;;;6.14;92.97
11936;BME280;6027;48.576;9.180;2023-03-16T09:20:59;97064.38;;;6.27;88.03
11936;BME280;6027;48.576;9.180;2023-03-16T09:23:25;97059.03;;;6.37;85.98
11936;BME280;6027;48.576;9.180;2023-03-16T09:28:19;97042.09;;;6.57;78.79
11936;BME280;6027;48.576;9.180;2023-03-16T09:30:44;97038.28;;;6.77;82.26
11936;BME280;6027;48.576;9.180;2023-03-16T09:33:11;97038.50;;;6.84;82.25
11936;BME280;6027;48.576;9.180;2023-03-16T09:35:37;97030.69;;;6.74;75.84
11936;BME280;6027;48.576;9.180;2023-03-16T09:38:03;97023.63;;;6.92;76.77
11936;BME280;6027;48.576;9.180;2023-03-16T09:40:29;97028.44;;;7.05;76.50
11936;BME280;6027;48.576;9.180;2023-03-16T09:46:06;97030.53;;;7.27;74.58
11936;BME280;6027;48.576;9.180;2023-03-16T09:48:36;97029.41;;;7.30;73.15
11936;BME280;6027;48.576;9.180;2023-03-16T09:51:06;97021.50;;;7.38;75.12
11936;BME280;6027;48.576;9.180;2023-03-16T09:53:34;97020.25;;;7.50;75.32
11936;BME280;6027;48.576;9.180;2023-03-16T09:56:35;97008.69;;;7.43;73.65
11936;BME280;6027;48.576;9.180;2023-03-16T09:59:09;97006.38;;;7.40;70.04
11936;BME280;6027;48.576;9.180;2023-03-16T10:12:25;96995.88;;;7.48;71.42
11936;BME280;6027;48.576;9.180;2023-03-16T10:15:14;97002.81;;;7.49;74.40
11936;BME280;6027;48.576;9.180;2023-03-16T10:18:14;96995.06;;;7.48;71.52
11936;BME280;6027;48.576;9.180;2023-03-16T10:20:42;97012.22;;;7.60;75.07
11936;BME280;6027;48.576;9.180;2023-03-16T10:23:21;97006.00;;;7.69;75.53
11936;BME280;6027;48.576;9.180;2023-03-16T10:25:53;97000.56;;;7.79;76.17
11936;BME280;6027;48.576;9.180;2023-03-16T10:28:21;97006.50;;;7.89;71.25
11936;BME280;6027;48.576;9.180;2023-03-16T10:30:49;97006.19;;;7.92;70.18
11936;BME280;6027;48.576;9.180;2023-03-16T10:33:29;96998.28;;;8.00;70.81
11936;BME280;6027;48.576;9.180;2023-03-16T10:38:53;96993.50;;;7.95;69.15
11936;BME280;6027;48.576;9.180;2023-03-16T10:41:25;96996.66;;;8.15;70.56
11936;BME280;6027;48.576;9.180;2023-03-16T10:46:26;97000.13;;;8.24;70.07
11936;BME280;6027;48.576;9.180;2023-03-16T10:49:00;96992.38;;;8.22;69.21
11936;BME280;6027;48.576;9.180;2023-03-16T10:51:29;96990.09;;;8.36;68.37
11936;BME280;6027;48.576;9.180;2023-03-16T10:54:03;96966.81;;;8.31;66.27
11936;BME280;6027;48.576;9.180;2023-03-16T10:56:33;96961.25;;;8.42;62.80
11936;BME280;6027;48.576;9.180;2023-03-16T10:59:00;96965.38;;;8.45;61.74
11936;BME280;6027;48.576;9.180;2023-03-16T11:01:28;96976.88;;;8.52;63.86
11936;BME280;6027;48.576;9.180;2023-03-16T11:03:56;96962.03;;;8.59;62.20
11936;BME280;6027;48.576;9.180;2023-03-16T11:06:27;96958.53;;;8.75;63.50
11936;BME280;6027;48.576;9.180;2023-03-16T11:09:03;96952.72;;;8.87;58.76
11936;BME280;6027;48.576;9.180;2023-03-16T11:11:32;96951.88;;;8.95;58.86
11936;BME280;6027;48.576;9.180;2023-03-16T11:14:01;96952.38;;;8.90;58.77
11936;BME280;6027;48.576;9.180;2023-03-16T11:17:05;96961.94;;;8.99;59.57
11936;BME280;6027;48.576;9.180;2023-03-16T11:19:47;96958.97;;;9.03;56.57
11936;BME280;6027;48.576;9.180;2023-03-16T11:22:17;96957.31;;;9.02;55.11
11936;BME280;6027;48.576;9.180;2023-03-16T11:24:49;96954.44;;;9.19;55.27
11936;BME280;6027;48.576;9.180;2023-03-16T11:27:34;96948.69;;;9.16;50.95
11936;BME280;6027;48.576;9.180;2023-03-16T11:30:05;96937.59;;;9.20;53.12
11936;BME280;6027;48.576;9.180;2023-03-16T11:32:39;96943.53;;;9.53;57.71
11936;BME280;6027;48.576;9.180;2023-03-16T11:35:18;96946.44;;;9.66;56.16
11936;BME280;6027;48.576;9.180;2023-03-16T11:40:40;96937.81;;;9.95;51.18
11936;BME280;6027;48.576;9.180;2023-03-16T11:43:21;96939.75;;;9.79;51.00
11936;BME280;6027;48.576;9.180;2023-03-16T11:56:34;96920.00;;;10.12;48.32
11936;BME280;6027;48.576;9.180;2023-03-16T11:59:32;96914.25;;;10.31;48.15
11936;BME280;6027;48.576;9.180;2023-03-16T12:10:14;96914.72;;;10.64;46.46
11936;BME280;6027;48.576;9.180;2023-03-16T12:12:48;96905.53;;;10.75;47.20
11936;BME280;6027;48.576;9.180;2023-03-16T12:18:22;96894.72;;;10.62;47.65
11936;BME280;6027;48.576;9.180;2023-03-16T12:20:57;96896.59;;;10.76;50.94
11936;BME280;6027;48.576;9.180;2023-03-16T12:23:31;96897.66;;;10.82;46.39
11936;BME280;6027;48.576;9.180;2023-03-16T12:25:59;96892.66;;;10.87;46.15
11936;BME280;6027;48.576;9.180;2023-03-16T12:28:27;96885.88;;;10.84;46.01
11936;BME280;6027;48.576;9.180;2023-03-16T12:30:59;96886.25;;;10.96;44.48
11936;BME280;6027;48.576;9.180;2023-03-16T12:39:06;96866.91;;;10.66;46.22
11936;BME280;6027;48.576;9.180;2023-03-16T12:44:21;96870.00;;;10.84;46.65
11936;BME280;6027;48.576;9.180;2023-03-16T12:49:37;96885.53;;;10.87;46.10
11936;BME280;6027;48.576;9.180;2023-03-16T12:52:06;96879.94;;;10.82;45.03
11936;BME280;6027;48.576;9.180;2023-03-16T12:54:33;96875.41;;;10.76;44.93
11936;BME280;6027;48.576;9.180;2023-03-16T12:57:04;96870.44;;;10.58;43.92
11936;BME280;6027;48.576;9.180;2023-03-16T12:59:39;96862.50;;;10.58;44.56
11936;BME280;6027;48.576;9.180;2023-03-16T13:02:18;96863.41;;;10.80;44.88
11936;BME280;6027;48.576;9.180;2023-03-16T13:04:46;96867.50;;;10.97;44.78
11936;BME280;6027;48.576;9.180;2023-03-16T13:07:18;96866.91;;;11.17;44.61
11936;BME280;6027;48.576;9.180;2023-03-16T13:12:30;96862.31;;;11.61;40.85
11936;BME280;6027;48.576;9.180;2023-03-16T13:14:58;96858.56;;;11.70;44.62
11936;BME280;6027;48.576;9.180;2023-03-16T13:17:29;96849.28;;;11.81;41.88
11936;BME280;6027;48.576;9.180;2023-03-16T13:22:45;96862.53;;;12.02;43.41
11936;BME280;6027;48.576;9.180;2023-03-16T13:25:40;96855.78;;;12.00;40.63
11936;BME280;6027;48.576;9.180;2023-03-16T13:28:11;96867.66;;;12.04;40.11
11936;BME280;6027;48.576;9.180;2023-03-16T13:30:43;96864.91;;;11.91;39.65
11936;BME280;6027;48.576;9.180;2023-03-16T13:33:20;96854.84;;;11.86;38.84
11936;BME280;6027;48.576;9.180;2023-03-16T13:35:48;96857.31;;;11.88;39.46
11936;BME280;6027;48.576;9.180;2023-03-16T13:38:16;96846.06;;;11.86;40.32
11936;BME280;6027;48.576;9.180;2023-03-16T13:40:50;96848.91;;;11.84;40.82
11936;BME280;6027;48.576;9.180;2023-03-16T13:43:21;96846.06;;;11.86;39.34
11936;BME280;6027;48.576;9.180;2023-03-16T13:45:47;96836.47;;;11.85;39.94
11936;BME280;6027;48.576;9.180;2023-03-16T13:48:14;96837.34;;;11.70;39.39
11936;BME280;6027;48.576;9.180;2023-03-16T13:50:41;96837.03;;;11.80;39.47
11936;BME280;6027;48.576;9.180;2023-03-16T13:53:48;96833.81;;;11.85;41.86
11936;BME280;6027;48.576;9.180;2023-03-16T13:56:12;96833.81;;;11.85;41.21
11936;BME280;6027;48.576;9.180;2023-03-16T13:58:39;96840.00;;;11.92;39.71
11936;BME280;6027;48.576;9.180;2023-03-16T14:01:28;96830.41;;;11.91;39.87
11936;BME280;6027;48.576;9.180;2023-03-16T14:03:58;96829.34;;;12.13;40.25
11936;BME280;6027;48.576;9.180;2023-03-16T14:06:28;96832.00;;;12.41;40.47
11936;BME280;6027;48.576;9.180;2023-03-16T14:08:57;96824.91;;;12.55;38.74
11936;BME280;6027;48.576;9.180;2023-03-16T14:11:25;96825.41;;;12.30;38.55
11936;BME280;6027;48.576;9.180;2023-03-16T14:13:52;96819.91;;;12.38;41.31
11936;BME280;6027;48.576;9.180;2023-03-16T14:16:21;96821.22;;;12.49;42.18
11936;BME280;6027;48.576;9.180;2023-03-16T14:18:53;96816.50;;;12.51;38.69
11936;BME280;6027;48.576;9.180;2023-03-16T14:21:25;96816.38;;;12.59;40.49
11936;BME280;6027;48.576;9.180;2023-03-16T14:23:53;96798.41;;;12.61;39.14
11936;BME280;6027;48.576;9.180;2023-03-16T14:26:21;96794.88;;;12.48;39.48
11936;BME280;6027;48.576;9.180;2023-03-16T14:29:01;96792.31;;;12.33;38.04
11936;BME280;6027;48.576;9.180;2023-03-16T14:31:45;96783.63;;;12.11;39.54
11936;BME280;6027;48.576;9.180;2023-03-16T14:34:29;96785.97;;;12.27;42.61